Aktuell sind 41 Gäste und keine Mitglieder online

[source: ADDS]
METAR
EDDV 300320Z 27004KT 9000 MIFG NSC 17/17 Q1010

ETHS 300220Z 13003KT 9999 FEW080 SCT230 18/13 Q1010 BLU+

ETHC 300220Z 06003KT 9999 FEW090 SCT200 19/15 Q1009 BLU+

TAF
TAF EDDV 292300Z 3000/3024 09004KT 9999 FEW040 PROB30 TEMPO 3000/3006 TSRA BKN040CB BECMG 3005/3008 26010KT TEMPO 3010/3018 28015G25KT TSRA BKN035CB PROB30 TEMPO 3013/3017 23015G35KT 4000 +TSRAGR BKN015CB

SR / SS: 03:03 / 19:27 UTC (EDVE 2017-05-30)
Wir begrüßen Harry als neues Mitglied im Verein! Herzlich Willkommen! +++ Ferdinand und Dennis haben die Theorieprüfung bestanden! Herzlichen Glückwunsch! +++ Neue Aquila 211 mit NVFR Zulassung und Glascockpit bestellt! ETA April 2017! +++ Herzlich Willkommen im Verein Mike! +++ Georg startet seine Ausbildung! Viel Erfolg und always happy landings! +++ Wir begrüßen Lasse als neues Mitglied im Verein und wünschen always happy landings! +++ Hallo und herzlichen Willkommen im Verein Thomas! +++ Die Termine für den nächsten BZF Kurs sind online! +++ Lukas hat das BZF bestanden! Herzlichen Glückwunsch! +++ Die Mitgliederversammlung am 20.12.2016 genehmigt den Antrag zur Flottenerneuerung +++ Alexander hat seine PPL(A)-Prüfung bestanden! Herzlichen Glückwunsch und Always Happy Landings! +++ Heinrich hat sich freigeflogen. Herzlichen Glückwunsch und always happy landings! +++ Wir wünschen Klaus viel Erfolg bei seiner Ausbildung! +++ Herzlichen Willkommen im Verein Uwe! Viel Spaß bei deiner Ausbildung! +++ Gunnar hat seine LAPL-Prüfung bestanden! Herzlichen Glückwunsch und always happy landings! +++ Christian hat die Theoretische Prüfung bestanden! Herzlichen Glückwunsch! +++ +++
Letztes NOTAM EDVE
von 08.06.2017 0400Z bis 08.06.2017 1800Z
OBSTACLE CLEARANCE SURFACE PENETRATED BY 2 MOBILE CRANES. PSN ABM THR08, 280M S OF RCL, ON APRON. ELEV 345FT/50FT AGL. DAY AND NIGHT [more]

Letztes NOTAM EDBC
von 18.05.2017 1441Z bis 14.08.2017 2359Z
ALL VFR AND IFR PROC TEMPO SUSPENDED. USABLE ONLY FOR FLIGHT VALIDATION.

Letztes NOTAM EDVM
von 01.04.2017 0900Z bis 31.05.2017 2000Z
APRON 2 AREA WIP REDUCED TO INSTALLED FENCED CORRIDOR, USE CAUTION.

Letztes NOTAM EDDV
von 22.06.2017 0800Z bis 22.06.2017 1200Z
HAMBURG DVOR/TAC HAM 113,10 MHZ CH78X, DVORTAC ON MAINTENANCE, DO NOT USE, FALSE INDICATIONS POSSIBLE

Letztes NOTAM EDVK
von 08.06.2017 0800Z bis 08.06.2017 1000Z
WARBURG DVOR/DME WRB 113.70/CH84X, DVOR PART ON MAINT. DO NOT USE, FALSE INDICATIONS POSS.

Letztes NOTAM ETHS
von 30.05.2017 1030Z bis 02.06.2017 1000Z
AERODROME SURVEILLANCE RADAR SERVICE PROVIDED OUT OF BREMEN ACC, C/S FASSBERG RADAR ON FREQ 122.425MHZ. TUE AND WED 1030-1500 THU 070 [more]

EDCB.png          aerodata150     Radio38